sensor_id;sensor_type;location;lat;lon;timestamp;temperature;humidity
20594;DHT22;10455;48.732;10.266;2023-02-26T00:04:25;-1.40;99.90
20594;DHT22;10455;48.732;10.266;2023-02-26T00:09:27;-1.60;99.90
20594;DHT22;10455;48.732;10.266;2023-02-26T00:14:29;-1.80;99.90
20594;DHT22;10455;48.732;10.266;2023-02-26T00:19:33;-1.60;99.90
20594;DHT22;10455;48.732;10.266;2023-02-26T00:24:35;-1.50;99.90
20594;DHT22;10455;48.732;10.266;2023-02-26T00:29:37;-1.60;99.90
20594;DHT22;10455;48.732;10.266;2023-02-26T00:34:41;-1.60;99.90
20594;DHT22;10455;48.732;10.266;2023-02-26T00:39:50;-1.50;99.90
20594;DHT22;10455;48.732;10.266;2023-02-26T00:44:56;-1.60;99.90
20594;DHT22;10455;48.732;10.266;2023-02-26T00:50:08;-1.40;99.90
20594;DHT22;10455;48.732;10.266;2023-02-26T01:00:16;-1.30;99.90
20594;DHT22;10455;48.732;10.266;2023-02-26T01:05:20;-1.40;99.90
20594;DHT22;10455;48.732;10.266;2023-02-26T01:10:22;-1.30;99.90
20594;DHT22;10455;48.732;10.266;2023-02-26T01:15:25;-1.10;99.90
20594;DHT22;10455;48.732;10.266;2023-02-26T01:20:32;-1.20;99.90
20594;DHT22;10455;48.732;10.266;2023-02-26T01:25:38;-1.60;99.90
20594;DHT22;10455;48.732;10.266;2023-02-26T01:30:42;-1.50;99.90
20594;DHT22;10455;48.732;10.266;2023-02-26T01:35:49;-1.50;99.90
20594;DHT22;10455;48.732;10.266;2023-02-26T01:41:13;-1.60;99.90
20594;DHT22;10455;48.732;10.266;2023-02-26T01:46:25;-1.70;99.90
20594;DHT22;10455;48.732;10.266;2023-02-26T01:51:48;-2.10;99.90
20594;DHT22;10455;48.732;10.266;2023-02-26T01:56:54;-2.00;99.90
20594;DHT22;10455;48.732;10.266;2023-02-26T02:01:57;-1.70;99.90
20594;DHT22;10455;48.732;10.266;2023-02-26T02:07:01;-1.60;99.90
20594;DHT22;10455;48.732;10.266;2023-02-26T02:12:10;-1.70;99.90
20594;DHT22;10455;48.732;10.266;2023-02-26T02:17:20;-2.00;99.90
20594;DHT22;10455;48.732;10.266;2023-02-26T02:22:39;-2.40;99.90
20594;DHT22;10455;48.732;10.266;2023-02-26T02:27:50;-2.60;99.90
20594;DHT22;10455;48.732;10.266;2023-02-26T02:32:59;-2.60;99.90
20594;DHT22;10455;48.732;10.266;2023-02-26T02:38:06;-2.90;99.90
20594;DHT22;10455;48.732;10.266;2023-02-26T02:43:13;-3.00;99.90
20594;DHT22;10455;48.732;10.266;2023-02-26T02:48:22;-3.20;99.90
20594;DHT22;10455;48.732;10.266;2023-02-26T02:53:29;-3.30;99.90
20594;DHT22;10455;48.732;10.266;2023-02-26T02:58:36;-3.30;99.90
20594;DHT22;10455;48.732;10.266;2023-02-26T03:03:46;-3.40;99.90
20594;DHT22;10455;48.732;10.266;2023-02-26T03:08:50;-3.30;99.90
20594;DHT22;10455;48.732;10.266;2023-02-26T03:13:53;-3.00;99.90
20594;DHT22;10455;48.732;10.266;2023-02-26T03:19:01;-3.00;99.90
20594;DHT22;10455;48.732;10.266;2023-02-26T03:24:08;-3.20;99.90
20594;DHT22;10455;48.732;10.266;2023-02-26T03:29:16;-3.10;99.90
20594;DHT22;10455;48.732;10.266;2023-02-26T03:34:26;-3.00;99.90
20594;DHT22;10455;48.732;10.266;2023-02-26T03:39:32;-2.90;99.90
20594;DHT22;10455;48.732;10.266;2023-02-26T03:44:38;-2.70;99.90
20594;DHT22;10455;48.732;10.266;2023-02-26T03:49:45;-2.60;99.90
20594;DHT22;10455;48.732;10.266;2023-02-26T03:54:52;-2.70;99.90
20594;DHT22;10455;48.732;10.266;2023-02-26T03:59:56;-2.90;99.90
20594;DHT22;10455;48.732;10.266;2023-02-26T04:05:05;-3.30;99.90
20594;DHT22;10455;48.732;10.266;2023-02-26T04:10:09;-3.50;99.90
20594;DHT22;10455;48.732;10.266;2023-02-26T04:15:12;-3.70;99.90
20594;DHT22;10455;48.732;10.266;2023-02-26T04:20:15;-3.80;99.90
20594;DHT22;10455;48.732;10.266;2023-02-26T04:25:17;-3.90;99.90
20594;DHT22;10455;48.732;10.266;2023-02-26T04:30:19;-3.90;99.90
20594;DHT22;10455;48.732;10.266;2023-02-26T04:35:22;-4.00;99.90
20594;DHT22;10455;48.732;10.266;2023-02-26T04:40:24;-4.10;99.90
20594;DHT22;10455;48.732;10.266;2023-02-26T04:45:27;-4.20;99.90
20594;DHT22;10455;48.732;10.266;2023-02-26T04:50:30;-4.30;99.90
20594;DHT22;10455;48.732;10.266;2023-02-26T04:55:32;-4.20;99.90
20594;DHT22;10455;48.732;10.266;2023-02-26T05:00:34;-4.20;99.90
20594;DHT22;10455;48.732;10.266;2023-02-26T05:05:38;-4.30;99.90
20594;DHT22;10455;48.732;10.266;2023-02-26T05:10:39;-4.10;99.90
20594;DHT22;10455;48.732;10.266;2023-02-26T05:15:41;-3.70;99.90
20594;DHT22;10455;48.732;10.266;2023-02-26T05:20:45;-3.40;99.90
20594;DHT22;10455;48.732;10.266;2023-02-26T05:25:47;-3.10;99.90
20594;DHT22;10455;48.732;10.266;2023-02-26T05:30:49;-3.10;99.90
20594;DHT22;10455;48.732;10.266;2023-02-26T05:35:52;-3.30;99.90
20594;DHT22;10455;48.732;10.266;2023-02-26T05:40:55;-3.60;99.90
20594;DHT22;10455;48.732;10.266;2023-02-26T05:45:58;-3.70;99.90
20594;DHT22;10455;48.732;10.266;2023-02-26T05:51:01;-3.70;99.90
20594;DHT22;10455;48.732;10.266;2023-02-26T05:56:04;-3.60;99.90
20594;DHT22;10455;48.732;10.266;2023-02-26T06:01:06;-3.50;99.90
20594;DHT22;10455;48.732;10.266;2023-02-26T06:06:09;-3.40;99.90
20594;DHT22;10455;48.732;10.266;2023-02-26T06:11:11;-3.60;99.90
20594;DHT22;10455;48.732;10.266;2023-02-26T06:16:13;-3.30;99.90
20594;DHT22;10455;48.732;10.266;2023-02-26T06:21:17;-3.40;99.90
20594;DHT22;10455;48.732;10.266;2023-02-26T06:26:19;-3.30;99.90
20594;DHT22;10455;48.732;10.266;2023-02-26T06:31:21;-2.90;99.90
20594;DHT22;10455;48.732;10.266;2023-02-26T06:36:24;-2.70;99.90
20594;DHT22;10455;48.732;10.266;2023-02-26T06:41:26;-2.50;99.90
20594;DHT22;10455;48.732;10.266;2023-02-26T06:46:28;-2.30;99.90
20594;DHT22;10455;48.732;10.266;2023-02-26T06:51:31;-1.70;99.90
20594;DHT22;10455;48.732;10.266;2023-02-26T06:56:33;-1.50;99.90
20594;DHT22;10455;48.732;10.266;2023-02-26T07:01:35;-2.10;99.90
20594;DHT22;10455;48.732;10.266;2023-02-26T07:06:38;-2.10;99.90
20594;DHT22;10455;48.732;10.266;2023-02-26T07:11:40;-2.30;99.90
20594;DHT22;10455;48.732;10.266;2023-02-26T07:16:42;-2.70;99.90
20594;DHT22;10455;48.732;10.266;2023-02-26T07:21:46;-2.80;99.90
20594;DHT22;10455;48.732;10.266;2023-02-26T07:26:48;-3.10;99.90
20594;DHT22;10455;48.732;10.266;2023-02-26T07:31:50;-2.80;99.90
20594;DHT22;10455;48.732;10.266;2023-02-26T07:36:53;-2.30;99.90
20594;DHT22;10455;48.732;10.266;2023-02-26T07:41:55;-2.20;99.90
20594;DHT22;10455;48.732;10.266;2023-02-26T07:46:57;-1.30;99.90
20594;DHT22;10455;48.732;10.266;2023-02-26T07:52:01;-0.80;99.90
20594;DHT22;10455;48.732;10.266;2023-02-26T07:57:04;0.00;99.90
20594;DHT22;10455;48.732;10.266;2023-02-26T08:02:06;-1.30;99.90
20594;DHT22;10455;48.732;10.266;2023-02-26T08:07:09;-0.50;99.90
20594;DHT22;10455;48.732;10.266;2023-02-26T08:12:11;0.00;99.90
20594;DHT22;10455;48.732;10.266;2023-02-26T08:17:13;-0.30;99.90
20594;DHT22;10455;48.732;10.266;2023-02-26T08:22:17;-0.10;99.90
20594;DHT22;10455;48.732;10.266;2023-02-26T08:27:19;2.70;99.90
20594;DHT22;10455;48.732;10.266;2023-02-26T08:32:21;1.40;99.90
20594;DHT22;10455;48.732;10.266;2023-02-26T08:37:24;2.70;99.90
20594;DHT22;10455;48.732;10.266;2023-02-26T08:42:26;2.30;99.90
20594;DHT22;10455;48.732;10.266;2023-02-26T08:47:28;2.00;99.90
20594;DHT22;10455;48.732;10.266;2023-02-26T08:52:31;0.60;99.90
20594;DHT22;10455;48.732;10.266;2023-02-26T08:57:33;-0.80;99.90
20594;DHT22;10455;48.732;10.266;2023-02-26T09:02:35;-0.70;99.90
20594;DHT22;10455;48.732;10.266;2023-02-26T09:07:38;-1.40;99.90
20594;DHT22;10455;48.732;10.266;2023-02-26T09:12:40;-2.00;99.90
20594;DHT22;10455;48.732;10.266;2023-02-26T09:17:42;-2.00;99.90
20594;DHT22;10455;48.732;10.266;2023-02-26T09:22:45;-1.80;99.90
20594;DHT22;10455;48.732;10.266;2023-02-26T09:27:47;-1.60;99.90
20594;DHT22;10455;48.732;10.266;2023-02-26T09:32:49;-1.80;99.90
20594;DHT22;10455;48.732;10.266;2023-02-26T09:37:52;-1.60;99.90
20594;DHT22;10455;48.732;10.266;2023-02-26T09:43:13;-1.50;99.90
20594;DHT22;10455;48.732;10.266;2023-02-26T09:48:19;-1.50;99.90
20594;DHT22;10455;48.732;10.266;2023-02-26T09:53:27;-1.70;99.90
20594;DHT22;10455;48.732;10.266;2023-02-26T09:58:32;-1.70;99.90
20594;DHT22;10455;48.732;10.266;2023-02-26T10:03:45;-1.40;99.90
20594;DHT22;10455;48.732;10.266;2023-02-26T10:09:04;-1.40;99.90
20594;DHT22;10455;48.732;10.266;2023-02-26T10:14:11;-1.40;99.90
20594;DHT22;10455;48.732;10.266;2023-02-26T10:19:18;-1.20;99.90
20594;DHT22;10455;48.732;10.266;2023-02-26T10:24:24;-0.70;99.90
20594;DHT22;10455;48.732;10.266;2023-02-26T10:29:33;-1.00;99.90
20594;DHT22;10455;48.732;10.266;2023-02-26T10:34:39;-0.90;99.90
20594;DHT22;10455;48.732;10.266;2023-02-26T10:39:51;-0.60;99.90
20594;DHT22;10455;48.732;10.266;2023-02-26T10:45:08;-0.30;99.90
20594;DHT22;10455;48.732;10.266;2023-02-26T10:50:13;-0.70;99.90
20594;DHT22;10455;48.732;10.266;2023-02-26T10:55:26;-0.40;99.90
20594;DHT22;10455;48.732;10.266;2023-02-26T11:05:34;-1.10;99.90
20594;DHT22;10455;48.732;10.266;2023-02-26T11:10:41;-0.90;99.90
20594;DHT22;10455;48.732;10.266;2023-02-26T11:15:47;-0.70;99.90
20594;DHT22;10455;48.732;10.266;2023-02-26T11:20:53;-0.70;99.90
20594;DHT22;10455;48.732;10.266;2023-02-26T11:26:00;-0.50;99.90
20594;DHT22;10455;48.732;10.266;2023-02-26T11:31:06;-0.80;99.90
20594;DHT22;10455;48.732;10.266;2023-02-26T11:36:11;-1.00;99.90
20594;DHT22;10455;48.732;10.266;2023-02-26T11:41:16;-0.80;99.90
20594;DHT22;10455;48.732;10.266;2023-02-26T11:46:23;0.00;99.90
20594;DHT22;10455;48.732;10.266;2023-02-26T11:51:28;0.20;99.90
20594;DHT22;10455;48.732;10.266;2023-02-26T11:56:35;-0.50;99.90
20594;DHT22;10455;48.732;10.266;2023-02-26T12:01:40;-0.80;99.90
20594;DHT22;10455;48.732;10.266;2023-02-26T12:06:49;-0.80;99.90
20594;DHT22;10455;48.732;10.266;2023-02-26T12:12:05;-0.50;99.90
20594;DHT22;10455;48.732;10.266;2023-02-26T12:17:23;-0.30;99.90
20594;DHT22;10455;48.732;10.266;2023-02-26T12:22:47;-0.30;99.90
20594;DHT22;10455;48.732;10.266;2023-02-26T12:28:17;0.30;99.90
20594;DHT22;10455;48.732;10.266;2023-02-26T12:33:36;-0.20;99.90
20594;DHT22;10455;48.732;10.266;2023-02-26T12:38:49;0.20;99.90
20594;DHT22;10455;48.732;10.266;2023-02-26T12:43:54;1.20;99.90
20594;DHT22;10455;48.732;10.266;2023-02-26T12:49:31;0.90;99.90
20594;DHT22;10455;48.732;10.266;2023-02-26T12:54:51;0.50;99.90
20594;DHT22;10455;48.732;10.266;2023-02-26T13:00:20;-0.10;99.90
20594;DHT22;10455;48.732;10.266;2023-02-26T13:05:31;0.90;99.90
20594;DHT22;10455;48.732;10.266;2023-02-26T13:10:47;1.70;99.90
20594;DHT22;10455;48.732;10.266;2023-02-26T13:16:03;1.80;99.90
20594;DHT22;10455;48.732;10.266;2023-02-26T13:21:11;1.50;99.90
20594;DHT22;10455;48.732;10.266;2023-02-26T13:26:15;0.60;99.90
20594;DHT22;10455;48.732;10.266;2023-02-26T13:31:21;0.60;99.90
20594;DHT22;10455;48.732;10.266;2023-02-26T13:36:24;1.50;99.90
20594;DHT22;10455;48.732;10.266;2023-02-26T13:41:36;0.70;99.90
20594;DHT22;10455;48.732;10.266;2023-02-26T13:46:51;0.40;99.90
20594;DHT22;10455;48.732;10.266;2023-02-26T13:51:56;1.00;99.90
20594;DHT22;10455;48.732;10.266;2023-02-26T13:57:23;1.80;99.90
20594;DHT22;10455;48.732;10.266;2023-02-26T14:02:45;2.00;99.90
20594;DHT22;10455;48.732;10.266;2023-02-26T14:07:52;2.30;99.90
20594;DHT22;10455;48.732;10.266;2023-02-26T14:13:15;2.80;99.90
20594;DHT22;10455;48.732;10.266;2023-02-26T14:18:30;2.50;99.90
20594;DHT22;10455;48.732;10.266;2023-02-26T14:23:37;2.40;99.90
20594;DHT22;10455;48.732;10.266;2023-02-26T14:28:55;1.30;99.90
20594;DHT22;10455;48.732;10.266;2023-02-26T14:34:07;0.70;99.90
20594;DHT22;10455;48.732;10.266;2023-02-26T14:39:21;0.00;99.90
20594;DHT22;10455;48.732;10.266;2023-02-26T14:44:27;-0.50;99.90
20594;DHT22;10455;48.732;10.266;2023-02-26T14:49:32;-1.40;99.90
20594;DHT22;10455;48.732;10.266;2023-02-26T14:54:49;-1.80;99.90
20594;DHT22;10455;48.732;10.266;2023-02-26T15:00:09;-1.90;99.90
20594;DHT22;10455;48.732;10.266;2023-02-26T15:05:41;-1.30;99.90
20594;DHT22;10455;48.732;10.266;2023-02-26T15:10:59;-0.30;99.90
20594;DHT22;10455;48.732;10.266;2023-02-26T15:16:12;0.50;99.90
20594;DHT22;10455;48.732;10.266;2023-02-26T15:21:24;-0.60;99.90
20594;DHT22;10455;48.732;10.266;2023-02-26T15:26:33;-1.20;99.90
20594;DHT22;10455;48.732;10.266;2023-02-26T15:31:39;-1.60;99.90
20594;DHT22;10455;48.732;10.266;2023-02-26T15:36:45;-1.80;99.90
20594;DHT22;10455;48.732;10.266;2023-02-26T15:41:49;-1.30;99.90
20594;DHT22;10455;48.732;10.266;2023-02-26T15:46:54;-0.80;99.90
20594;DHT22;10455;48.732;10.266;2023-02-26T15:51:59;-0.70;99.90
20594;DHT22;10455;48.732;10.266;2023-02-26T15:57:02;-0.80;99.90
20594;DHT22;10455;48.732;10.266;2023-02-26T16:02:10;-0.80;99.90
20594;DHT22;10455;48.732;10.266;2023-02-26T16:07:14;-1.00;99.90
20594;DHT22;10455;48.732;10.266;2023-02-26T16:12:18;-0.90;99.90
20594;DHT22;10455;48.732;10.266;2023-02-26T16:17:24;-0.70;99.90
20594;DHT22;10455;48.732;10.266;2023-02-26T16:22:31;-0.80;99.90
20594;DHT22;10455;48.732;10.266;2023-02-26T16:27:33;-0.90;99.90
20594;DHT22;10455;48.732;10.266;2023-02-26T16:32:36;-1.00;99.90
20594;DHT22;10455;48.732;10.266;2023-02-26T16:37:43;-1.10;99.90
20594;DHT22;10455;48.732;10.266;2023-02-26T16:42:53;-1.10;99.90
20594;DHT22;10455;48.732;10.266;2023-02-26T16:47:56;-1.00;99.90
20594;DHT22;10455;48.732;10.266;2023-02-26T16:53:04;-1.10;99.90
20594;DHT22;10455;48.732;10.266;2023-02-26T16:58:11;-1.20;99.90
20594;DHT22;10455;48.732;10.266;2023-02-26T17:03:16;-1.30;99.90
20594;DHT22;10455;48.732;10.266;2023-02-26T17:08:21;-1.30;99.90
20594;DHT22;10455;48.732;10.266;2023-02-26T17:13:28;-1.30;99.90
20594;DHT22;10455;48.732;10.266;2023-02-26T17:18:31;-1.30;99.90
20594;DHT22;10455;48.732;10.266;2023-02-26T17:23:36;-1.40;99.90
20594;DHT22;10455;48.732;10.266;2023-02-26T17:28:41;-2.00;99.90
20594;DHT22;10455;48.732;10.266;2023-02-26T17:33:44;-2.40;99.90
20594;DHT22;10455;48.732;10.266;2023-02-26T17:38:47;-2.30;99.90
20594;DHT22;10455;48.732;10.266;2023-02-26T17:43:50;-2.30;99.90
20594;DHT22;10455;48.732;10.266;2023-02-26T17:48:51;-2.10;99.90
20594;DHT22;10455;48.732;10.266;2023-02-26T17:53:55;-1.90;99.90
20594;DHT22;10455;48.732;10.266;2023-02-26T17:58:58;-2.10;99.90
20594;DHT22;10455;48.732;10.266;2023-02-26T18:04:01;-2.10;99.90
20594;DHT22;10455;48.732;10.266;2023-02-26T18:09:04;-2.10;99.90
20594;DHT22;10455;48.732;10.266;2023-02-26T18:14:06;-1.90;99.90
20594;DHT22;10455;48.732;10.266;2023-02-26T18:19:12;-1.90;99.90
20594;DHT22;10455;48.732;10.266;2023-02-26T18:24:15;-1.90;99.90
20594;DHT22;10455;48.732;10.266;2023-02-26T18:29:17;-1.90;99.90
20594;DHT22;10455;48.732;10.266;2023-02-26T18:34:20;-1.80;99.90
20594;DHT22;10455;48.732;10.266;2023-02-26T18:39:23;-1.90;99.90
20594;DHT22;10455;48.732;10.266;2023-02-26T18:44:29;-2.00;99.90
20594;DHT22;10455;48.732;10.266;2023-02-26T18:49:32;-2.10;99.90
20594;DHT22;10455;48.732;10.266;2023-02-26T18:54:36;-2.10;99.90
20594;DHT22;10455;48.732;10.266;2023-02-26T18:59:38;-2.10;99.90
20594;DHT22;10455;48.732;10.266;2023-02-26T19:04:40;-2.20;99.90
20594;DHT22;10455;48.732;10.266;2023-02-26T19:09:43;-2.60;99.90
20594;DHT22;10455;48.732;10.266;2023-02-26T19:14:46;-2.60;99.90
20594;DHT22;10455;48.732;10.266;2023-02-26T19:19:48;-2.70;99.90
20594;DHT22;10455;48.732;10.266;2023-02-26T19:24:51;-2.70;99.90
20594;DHT22;10455;48.732;10.266;2023-02-26T19:29:54;-2.80;99.90
20594;DHT22;10455;48.732;10.266;2023-02-26T19:34:56;-3.00;99.90
20594;DHT22;10455;48.732;10.266;2023-02-26T19:39:59;-3.00;99.90
20594;DHT22;10455;48.732;10.266;2023-02-26T19:45:06;-3.10;99.90
20594;DHT22;10455;48.732;10.266;2023-02-26T19:50:09;-3.10;99.90
20594;DHT22;10455;48.732;10.266;2023-02-26T19:55:13;-3.10;99.90
20594;DHT22;10455;48.732;10.266;2023-02-26T20:00:15;-3.10;99.90
20594;DHT22;10455;48.732;10.266;2023-02-26T20:05:17;-3.10;99.90
20594;DHT22;10455;48.732;10.266;2023-02-26T20:10:21;-3.10;99.90
20594;DHT22;10455;48.732;10.266;2023-02-26T20:15:24;-3.00;99.90
20594;DHT22;10455;48.732;10.266;2023-02-26T20:20:26;-2.90;99.90
20594;DHT22;10455;48.732;10.266;2023-02-26T20:25:30;-3.00;99.90
20594;DHT22;10455;48.732;10.266;2023-02-26T20:30:31;-2.80;99.90
20594;DHT22;10455;48.732;10.266;2023-02-26T20:35:34;-2.90;99.90
20594;DHT22;10455;48.732;10.266;2023-02-26T20:40:38;-2.90;99.90
20594;DHT22;10455;48.732;10.266;2023-02-26T20:45:41;-3.00;99.90
20594;DHT22;10455;48.732;10.266;2023-02-26T20:50:43;-3.00;99.90
20594;DHT22;10455;48.732;10.266;2023-02-26T20:55:47;-3.10;99.90
20594;DHT22;10455;48.732;10.266;2023-02-26T21:00:48;-3.20;99.90
20594;DHT22;10455;48.732;10.266;2023-02-26T21:05:51;-3.20;99.90
20594;DHT22;10455;48.732;10.266;2023-02-26T21:10:54;-3.20;99.90
20594;DHT22;10455;48.732;10.266;2023-02-26T21:15:56;-3.20;99.90
20594;DHT22;10455;48.732;10.266;2023-02-26T21:20:58;-3.20;99.90
20594;DHT22;10455;48.732;10.266;2023-02-26T21:26:02;-3.10;99.90
20594;DHT22;10455;48.732;10.266;2023-02-26T21:31:04;-3.10;99.90
20594;DHT22;10455;48.732;10.266;2023-02-26T21:36:06;-3.40;99.90
20594;DHT22;10455;48.732;10.266;2023-02-26T21:41:12;-3.50;99.90
20594;DHT22;10455;48.732;10.266;2023-02-26T21:46:14;-3.60;99.90
20594;DHT22;10455;48.732;10.266;2023-02-26T21:51:16;-3.70;99.90
20594;DHT22;10455;48.732;10.266;2023-02-26T21:56:22;-3.70;99.90
20594;DHT22;10455;48.732;10.266;2023-02-26T22:01:25;-3.70;99.90
20594;DHT22;10455;48.732;10.266;2023-02-26T22:06:27;-3.70;99.90
20594;DHT22;10455;48.732;10.266;2023-02-26T22:11:30;-3.70;99.90
20594;DHT22;10455;48.732;10.266;2023-02-26T22:16:32;-3.70;99.90
20594;DHT22;10455;48.732;10.266;2023-02-26T22:21:34;-3.70;99.90
20594;DHT22;10455;48.732;10.266;2023-02-26T22:26:38;-3.60;99.90
20594;DHT22;10455;48.732;10.266;2023-02-26T22:31:39;-3.60;99.90
20594;DHT22;10455;48.732;10.266;2023-02-26T22:36:41;-3.70;99.90
20594;DHT22;10455;48.732;10.266;2023-02-26T22:41:45;-3.70;99.90
20594;DHT22;10455;48.732;10.266;2023-02-26T22:46:47;-3.60;99.90
20594;DHT22;10455;48.732;10.266;2023-02-26T22:51:49;-3.90;99.90
20594;DHT22;10455;48.732;10.266;2023-02-26T23:01:55;-4.00;99.90
20594;DHT22;10455;48.732;10.266;2023-02-26T23:06:57;-4.10;99.90
20594;DHT22;10455;48.732;10.266;2023-02-26T23:12:00;-4.00;99.90
20594;DHT22;10455;48.732;10.266;2023-02-26T23:17:02;-4.10;99.90
20594;DHT22;10455;48.732;10.266;2023-02-26T23:22:04;-4.10;99.90
20594;DHT22;10455;48.732;10.266;2023-02-26T23:27:08;-4.20;99.90
20594;DHT22;10455;48.732;10.266;2023-02-26T23:32:10;-4.30;99.90
20594;DHT22;10455;48.732;10.266;2023-02-26T23:37:12;-4.30;99.90
20594;DHT22;10455;48.732;10.266;2023-02-26T23:42:16;-4.30;99.90
20594;DHT22;10455;48.732;10.266;2023-02-26T23:47:18;-4.30;99.90
20594;DHT22;10455;48.732;10.266;2023-02-26T23:52:20;-4.40;99.90
20594;DHT22;10455;48.732;10.266;2023-02-26T23:57:26;-4.40;99.90
